Time;durP1;ratioP1;P1;durP2;ratioP2;P2;SDS_P1;SDS_P2;PMS_P1;PMS_P2;Temp;Humidity;BMP_temperature;BMP_pressure;BME280_temperature;BME280_humidity;BME280_pressure;Samples;Min_cycle;Max_cycle;Signal;HPM_P1;HPM_P2
2022/09/23 00:01:38;;;;;;;37.90;34.60;;;;;;;7.94;100.00;98335.17;105879;1282;22586;-90
2022/09/23 00:04:06;;;;;;;41.80;37.90;;;;;;;7.97;100.00;98330.70;105839;1282;22766;-90
2022/09/23 00:06:34;;;;;;;39.30;35.70;;;;;;;7.97;100.00;98334.31;105770;1282;24378;-88
2022/09/23 00:09:02;;;;;;;39.80;36.00;;;;;;;7.95;100.00;98333.60;105602;1282;25309;-90
2022/09/23 00:11:31;;;;;;;36.90;33.40;;;;;;;7.94;100.00;98332.86;105921;1281;22556;-87
2022/09/23 00:14:00;;;;;;;36.40;33.00;;;;;;;7.97;100.00;98330.55;107912;1282;22615;-88
2022/09/23 00:16:32;;;;;;;32.10;29.20;;;;;;;7.98;100.00;98328.40;105767;1282;22625;-88
2022/09/23 00:19:02;;;;;;;39.80;36.10;;;;;;;8.00;100.00;98322.33;105501;1282;22709;-90
2022/09/23 00:21:30;;;;;;;36.00;32.70;;;;;;;7.97;100.00;98321.05;105498;1282;22600;-90
2022/09/23 00:23:58;;;;;;;34.80;30.90;;;;;;;7.96;100.00;98321.64;107625;1282;22672;-89
2022/09/23 00:26:26;;;;;;;35.90;32.70;;;;;;;7.93;100.00;98316.82;107341;1282;25461;-89
2022/09/23 00:28:54;;;;;;;43.60;39.90;;;;;;;7.93;100.00;98316.11;105756;1282;22569;-91
2022/09/23 00:31:25;;;;;;;41.30;37.60;;;;;;;7.95;100.00;98315.52;105661;1282;22614;-90
2022/09/23 00:34:03;;;;;;;32.90;29.70;;;;;;;7.93;100.00;98311.66;105811;1282;23340;-91
2022/09/23 00:36:31;;;;;;;33.60;30.20;;;;;;;7.96;100.00;98313.37;105687;1282;22709;-90
2022/09/23 00:38:59;;;;;;;35.80;32.60;;;;;;;7.94;100.00;98310.52;105832;1282;23849;-92
2022/09/23 00:41:27;;;;;;;38.00;34.40;;;;;;;7.91;100.00;98307.86;105825;1282;22586;-90
2022/09/23 00:43:59;;;;;;;33.50;30.60;;;;;;;7.84;100.00;98306.80;105844;1282;22772;-90
2022/09/23 00:46:35;;;;;;;33.10;30.10;;;;;;;7.82;100.00;98304.80;105825;1282;24209;-86
2022/09/23 00:49:09;;;;;;;33.00;30.00;;;;;;;7.80;100.00;98302.62;105835;1282;24313;-85
2022/09/23 00:51:44;;;;;;;33.60;30.50;;;;;;;7.79;100.00;98301.80;105643;1282;22591;-90
2022/09/23 00:54:12;;;;;;;;;;;;;;;7.79;100.00;98302.30;105580;1281;22811;-90
2022/09/23 00:56:40;;;;;;;39.90;36.40;;;;;;;7.76;100.00;98300.84;105625;1282;22613;-89
2022/09/23 00:59:09;;;;;;;37.20;34.10;;;;;;;7.73;100.00;98300.54;106208;1281;22595;-90
2022/09/23 01:01:38;;;;;;;34.90;31.50;;;;;;;7.71;100.00;98297.75;106353;1282;22977;-91
2022/09/23 01:04:07;;;;;;;65.00;59.10;;;;;;;7.72;100.00;98295.55;106145;1282;23204;-89
2022/09/23 01:06:35;;;;;;;49.60;44.70;;;;;;;7.75;100.00;98293.91;106517;1282;23018;-92
2022/09/23 01:09:03;;;;;;;36.40;33.20;;;;;;;7.76;100.00;98288.13;106189;1282;22576;-90
2022/09/23 01:11:53;;;;;;;33.40;30.40;;;;;;;7.85;100.00;98290.27;106445;1282;22893;-90
2022/09/23 01:14:36;;;;;;;34.70;31.40;;;;;;;7.86;100.00;98292.99;106597;1282;22698;-93
2022/09/23 01:17:23;;;;;;;34.50;31.30;;;;;;;7.83;100.00;98292.47;106781;1282;24277;-93
2022/09/23 01:20:19;;;;;;;34.80;31.30;;;;;;;7.75;100.00;98294.58;106359;1282;22751;-90
2022/09/23 01:23:10;;;;;;;33.70;30.80;;;;;;;7.68;100.00;98295.70;106022;1282;22678;-91
2022/09/23 01:25:39;;;;;;;30.40;27.50;;;;;;;7.63;100.00;98292.17;106528;1282;22607;-90
2022/09/23 01:28:17;;;;;;;29.50;26.70;;;;;;;7.54;100.00;98292.66;106438;1282;25361;-90
2022/09/23 01:31:23;;;;;;;31.70;28.80;;;;;;;7.53;100.00;98287.20;108306;1281;22571;-88
2022/09/23 01:34:03;;;;;;;30.80;28.30;;;;;;;7.53;100.00;98294.44;108513;1281;25923;-89
2022/09/23 01:37:06;;;;;;;31.00;28.30;;;;;;;7.48;100.00;98289.34;108540;1279;22670;-89
2022/09/23 01:39:38;;;;;;;27.80;25.10;;;;;;;7.45;100.00;98285.95;107839;1287;22574;-87
2022/09/23 01:42:28;;;;;;;32.90;29.50;;;;;;;7.48;100.00;98282.91;107746;1288;22561;-87
2022/09/23 01:45:13;;;;;;;39.90;36.30;;;;;;;7.47;100.00;98283.59;107895;1287;22660;-86
2022/09/23 01:47:53;;;;;;;28.90;26.00;;;;;;;7.42;100.00;98283.12;108070;1288;22628;-89
2022/09/23 01:53:42;;;;;;;32.10;29.10;;;;;;;7.35;100.00;98285.47;107910;1288;22639;-87
2022/09/23 01:56:31;;;;;;;30.00;27.30;;;;;;;7.34;100.00;98283.60;105555;1288;22705;-93
2022/09/23 01:59:09;;;;;;;36.30;32.80;;;;;;;7.35;100.00;98281.52;107939;1288;22583;-84
2022/09/23 02:01:49;;;;;;;39.30;35.60;;;;;;;7.37;100.00;98280.59;107913;1288;22675;-87
2022/09/23 02:04:50;;;;;;;36.80;33.20;;;;;;;7.37;100.00;98281.40;106503;1288;22867;-90
2022/09/23 02:07:28;;;;;;;35.30;31.60;;;;;;;7.40;100.00;98287.23;107820;1288;22720;-89
2022/09/23 02:10:05;;;;;;;33.90;30.50;;;;;;;7.45;100.00;98286.98;107915;1287;22545;-89
2022/09/23 02:12:37;;;;;;;35.10;31.70;;;;;;;7.49;100.00;98286.08;107891;1287;22898;-89
2022/09/23 02:15:10;;;;;;;35.30;31.60;;;;;;;7.53;100.00;98288.21;107823;1281;22547;-88
2022/09/23 02:17:48;;;;;;;34.70;31.50;;;;;;;7.55;100.00;98286.42;108948;1282;23051;-89
2022/09/23 02:20:23;;;;;;;36.40;33.10;;;;;;;7.55;100.00;98288.89;109094;1280;22644;-88
2022/09/23 02:22:55;;;;;;;;;;;;;;;7.56;100.00;98290.56;108891;1282;22608;-88
2022/09/23 02:25:34;;;;;;;33.10;30.20;;;;;;;7.55;100.00;98287.34;109065;1282;22738;-86
2022/09/23 02:28:10;;;;;;;30.30;27.40;;;;;;;7.57;100.00;98284.02;109054;1282;22622;-84
2022/09/23 02:30:59;;;;;;;32.70;29.70;;;;;;;7.56;100.00;98284.71;109116;1282;22576;-84
2022/09/23 02:33:35;;;;;;;34.50;31.00;;;;;;;7.56;100.00;98286.12;109143;1282;23034;-88
2022/09/23 02:36:18;;;;;;;65.90;60.20;;;;;;;7.52;100.00;98287.95;108921;1282;22558;-87
2022/09/23 02:38:58;;;;;;;32.20;29.30;;;;;;;7.49;100.00;98285.68;109059;1282;22617;-86
2022/09/23 02:41:36;;;;;;;30.50;27.20;;;;;;;7.50;100.00;98286.51;108565;1282;22608;-89
2022/09/23 02:44:11;;;;;;;26.90;24.40;;;;;;;7.49;100.00;98286.27;108087;1282;23134;-91
2022/09/23 02:46:42;;;;;;;31.00;28.20;;;;;;;7.44;100.00;98282.27;108171;1282;22552;-90
2022/09/23 02:49:23;;;;;;;28.10;25.20;;;;;;;7.41;100.00;98280.34;108249;1281;22575;-90
2022/09/23 02:51:59;;;;;;;31.50;28.50;;;;;;;7.32;100.00;98285.41;108363;1282;23611;-87
2022/09/23 02:54:28;;;;;;;31.90;28.80;;;;;;;7.24;100.00;98287.98;107604;1282;22576;-90
2022/09/23 02:57:01;;;;;;;35.30;29.20;;;;;;;7.20;100.00;98286.27;107399;1282;22998;-87
2022/09/23 02:59:30;;;;;;;27.50;25.10;;;;;;;7.19;100.00;98285.95;107381;1281;22545;-91
2022/09/23 03:02:12;;;;;;;27.40;24.80;;;;;;;7.17;100.00;98283.86;107255;1282;22825;-91
2022/09/23 03:04:49;;;;;;;30.40;27.50;;;;;;;7.13;100.00;98285.09;107389;1282;22639;-91
2022/09/23 03:07:48;;;;;;;35.80;32.30;;;;;;;7.04;100.00;98281.33;107432;1282;22603;-91
2022/09/23 03:10:25;;;;;;;33.00;29.80;;;;;;;7.00;100.00;98279.80;106845;1282;22710;-91
2022/09/23 03:13:03;;;;;;;50.40;46.20;;;;;;;6.92;100.00;98275.36;105902;1282;22941;-90
2022/09/23 03:15:58;;;;;;;30.10;27.10;;;;;;;6.88;100.00;98273.95;106216;1282;24264;-89
2022/09/23 03:18:50;;;;;;;29.90;27.20;;;;;;;6.82;100.00;98279.05;106712;1280;22488;-87
2022/09/23 03:21:53;;;;;;;29.60;26.90;;;;;;;6.75;100.00;98278.00;106525;1282;24433;-92
2022/09/23 03:24:23;;;;;;;29.40;26.70;;;;;;;6.66;100.00;98279.21;106101;1282;22562;-92
2022/09/23 03:26:54;;;;;;;32.00;29.20;;;;;;;6.56;100.00;98279.50;106115;1281;26193;-89
2022/09/23 03:29:22;;;;;;;35.50;32.00;;;;;;;6.45;100.00;98278.65;105856;1282;25358;-89
2022/09/23 03:31:52;;;;;;;59.20;53.30;;;;;;;6.36;100.00;98282.42;105513;1282;24837;-89
2022/09/23 03:34:25;;;;;;;84.70;76.20;;;;;;;6.29;100.00;98277.84;105575;1282;22503;-90
2022/09/23 03:36:59;;;;;;;33.60;30.40;;;;;;;6.29;100.00;98283.78;105571;1282;22913;-89
2022/09/23 03:39:49;;;;;;;34.70;31.30;;;;;;;6.26;100.00;98284.31;105644;1282;22564;-89
2022/09/23 03:42:22;;;;;;;50.80;45.50;;;;;;;6.19;100.00;98279.83;105474;1282;24307;-91
2022/09/23 03:44:56;;;;;;;66.30;38.10;;;;;;;6.15;100.00;98277.73;105549;1282;25422;-88
2022/09/23 03:47:26;;;;;;;68.70;37.40;;;;;;;6.12;100.00;98281.41;105508;1282;22862;-90
2022/09/23 03:49:55;;;;;;;62.20;32.80;;;;;;;6.08;100.00;98278.44;105576;1281;25487;-90
2022/09/23 03:52:25;;;;;;;72.10;31.70;;;;;;;6.06;100.00;98275.02;105534;1282;22564;-91
2022/09/23 03:58:37;;;;;;;38.00;33.20;;;;;;;6.05;100.00;98274.20;105621;1282;25425;-87
2022/09/23 04:01:05;;;;;;;60.00;53.30;;;;;;;6.10;100.00;98274.93;105659;1282;22713;-91
2022/09/23 04:03:33;;;;;;;64.40;37.90;;;;;;;6.16;100.00;98271.69;107483;1282;25361;-89
2022/09/23 04:06:00;;;;;;;52.10;37.30;;;;;;;6.23;100.00;98272.42;107608;1282;22545;-91
2022/09/23 04:08:28;;;;;;;87.20;41.80;;;;;;;6.27;100.00;98271.84;106373;1282;24312;-90
2022/09/23 04:11:01;;;;;;;147.80;48.70;;;;;;;6.27;100.00;98267.25;108563;1282;22624;-88
2022/09/23 04:13:30;;;;;;;118.10;35.90;;;;;;;6.30;100.00;98267.20;107596;1282;22541;-90
2022/09/23 04:15:58;;;;;;;142.90;33.00;;;;;;;6.31;100.00;98272.08;105536;1282;24254;-90
2022/09/23 04:18:26;;;;;;;158.60;34.30;;;;;;;6.27;100.00;98266.77;105655;1282;24280;-89
2022/09/23 04:21:01;;;;;;;69.90;31.90;;;;;;;6.30;100.00;98273.73;105599;1282;22706;-90
2022/09/23 04:23:29;;;;;;;60.20;28.00;;;;;;;6.32;100.00;98273.05;105836;1282;25253;-91
2022/09/23 04:25:57;;;;;;;51.30;30.30;;;;;;;6.32;100.00;98269.41;105831;1282;22680;-90
2022/09/23 04:28:25;;;;;;;44.30;29.40;;;;;;;6.30;100.00;98271.75;105968;1282;22708;-90
2022/09/23 04:30:54;;;;;;;71.40;31.20;;;;;;;6.28;100.00;98274.25;105968;1282;24301;-91
2022/09/23 04:33:24;;;;;;;42.20;30.90;;;;;;;6.27;100.00;98275.48;106080;1282;22491;-91
2022/09/23 04:35:54;;;;;;;60.60;32.70;;;;;;;6.27;100.00;98275.18;108262;1282;22574;-86
2022/09/23 04:38:22;;;;;;;40.70;31.70;;;;;;;6.30;100.00;98272.23;108979;1282;22647;-87
2022/09/23 04:40:50;;;;;;;51.80;30.10;;;;;;;6.33;100.00;98270.27;107122;1281;22528;-89
2022/09/23 04:43:21;;;;;;;40.90;29.00;;;;;;;6.37;100.00;98265.98;106107;1282;22715;-93
2022/09/23 04:46:02;;;;;;;40.90;31.80;;;;;;;6.38;100.00;98269.48;106264;1282;22560;-90
2022/09/23 04:48:30;;;;;;;39.40;35.60;;;;;;;6.35;100.00;98271.45;106318;1282;25397;-92
2022/09/23 04:51:03;;;;;;;35.00;31.70;;;;;;;6.31;100.00;98273.85;106623;1282;22604;-91
2022/09/23 04:53:32;;;;;;;36.90;33.30;;;;;;;6.31;100.00;98277.69;106235;1282;22553;-91
2022/09/23 04:56:27;;;;;;;37.80;32.60;;;;;;;6.32;100.00;98277.23;106202;1282;24413;-92
2022/09/23 04:58:57;;;;;;;32.30;27.70;;;;;;;6.33;100.00;98277.45;105927;1282;22635;-92
2022/09/23 05:01:27;;;;;;;37.50;32.40;;;;;;;6.33;100.00;98276.84;105729;1282;24262;-91
2022/09/23 05:04:01;;;;;;;44.20;39.30;;;;;;;6.32;100.00;98282.47;105568;1282;22560;-90
2022/09/23 05:06:31;;;;;;;71.50;33.20;;;;;;;6.36;100.00;98277.02;105734;1283;24281;-92
2022/09/23 05:08:59;;;;;;;60.70;30.80;;;;;;;6.35;100.00;98277.82;105693;1282;22545;-89
2022/09/23 05:11:30;;;;;;;35.80;31.00;;;;;;;6.35;100.00;98278.41;105525;1282;22804;-90
2022/09/23 05:13:58;;;;;;;66.90;26.50;;;;;;;6.40;100.00;98282.91;105406;1282;23202;-89
2022/09/23 05:16:26;;;;;;;86.90;26.70;;;;;;;6.42;100.00;98281.10;105508;1282;24319;-89
2022/09/23 05:18:55;;;;;;;49.30;28.10;;;;;;;6.41;100.00;98285.29;105534;1282;25222;-90
2022/09/23 05:21:25;;;;;;;58.00;27.50;;;;;;;6.40;100.00;98281.10;106363;1282;22513;-88
2022/09/23 05:23:57;;;;;;;42.50;28.80;;;;;;;6.39;100.00;98287.58;106819;1282;25279;-90
2022/09/23 05:26:28;;;;;;;32.10;28.60;;;;;;;6.39;100.00;98289.35;105508;1282;22633;-88
2022/09/23 05:28:57;;;;;;;31.50;27.00;;;;;;;6.46;100.00;98290.48;105792;1282;22562;-85
2022/09/23 05:31:28;;;;;;;33.10;28.00;;;;;;;6.51;100.00;98288.59;106301;1282;23024;-88
2022/09/23 05:33:59;;;;;;;30.40;27.40;;;;;;;6.59;100.00;98290.01;106446;1282;24242;-88
2022/09/23 05:36:29;;;;;;;40.60;31.60;;;;;;;6.69;100.00;98288.65;107088;1282;22540;-89
2022/09/23 05:39:05;;;;;;;58.10;33.10;;;;;;;6.77;100.00;98289.95;106998;1282;22557;-90
2022/09/23 05:41:34;;;;;;;42.60;30.90;;;;;;;6.80;100.00;98291.98;106592;1282;24349;-90
2022/09/23 05:44:03;;;;;;;43.10;28.80;;;;;;;6.87;100.00;98291.90;106502;1282;22554;-90
2022/09/23 05:46:31;;;;;;;50.90;28.90;;;;;;;6.91;100.00;98293.96;106513;1282;24165;-90
2022/09/23 05:49:00;;;;;;;41.90;27.40;;;;;;;6.94;100.00;98289.02;106353;1282;22535;-93
2022/09/23 05:51:33;;;;;;;38.70;29.20;;;;;;;6.96;100.00;98298.77;106530;1282;22615;-91
2022/09/23 05:54:02;;;;;;;52.30;30.30;;;;;;;7.02;100.00;98293.54;106148;1282;22531;-90
2022/09/23 05:56:36;;;;;;;82.50;31.70;;;;;;;7.08;100.00;98298.75;105913;1282;25492;-89
2022/09/23 05:59:05;;;;;;;39.30;29.90;;;;;;;7.10;100.00;98295.05;106009;1282;22737;-91
2022/09/23 06:01:35;;;;;;;36.30;30.50;;;;;;;7.16;100.00;98294.10;105799;1282;22496;-91
2022/09/23 06:04:06;;;;;;;39.80;33.00;;;;;;;7.26;100.00;98297.31;107753;1282;24081;-89
2022/09/23 06:06:40;;;;;;;43.50;30.20;;;;;;;7.39;100.00;98295.13;108343;1282;22576;-90
2022/09/23 06:09:15;;;;;;;43.10;31.20;;;;;;;7.40;100.00;98298.77;106124;1282;25355;-90
2022/09/23 06:11:43;;;;;;;37.00;32.50;;;;;;;7.35;100.00;98298.66;106040;1281;23948;-92
2022/09/23 06:14:13;;;;;;;36.40;30.70;;;;;;;7.34;100.00;98301.56;106035;1282;26483;-91
2022/09/23 06:16:41;;;;;;;51.30;33.80;;;;;;;7.31;100.00;98300.70;105754;1282;22615;-91
2022/09/23 06:19:10;;;;;;;40.20;32.90;;;;;;;7.25;100.00;98301.29;105902;1282;25349;-91
2022/09/23 06:21:39;;;;;;;36.60;28.90;;;;;;;7.26;100.00;98308.00;105855;1282;22732;-92
2022/09/23 06:24:08;;;;;;;38.00;32.90;;;;;;;7.26;100.00;98307.72;105960;1282;23524;-90
2022/09/23 06:26:37;;;;;;;48.80;33.80;;;;;;;7.27;100.00;98308.04;105922;1282;22547;-90
2022/09/23 06:29:10;;;;;;;62.10;37.20;;;;;;;7.20;100.00;98309.27;106084;1284;22646;-89
2022/09/23 06:31:40;;;;;;;59.50;37.70;;;;;;;7.14;100.00;98309.70;106023;1282;23938;-91
2022/09/23 06:34:10;;;;;;;44.70;34.20;;;;;;;7.14;100.00;98312.59;105951;1282;24225;-90
2022/09/23 06:36:42;;;;;;;45.10;36.10;;;;;;;7.15;100.00;98313.60;105820;1282;22545;-89
2022/09/23 06:39:14;;;;;;;36.10;32.40;;;;;;;7.16;100.00;98320.84;107254;1282;22957;-88
2022/09/23 06:41:43;;;;;;;47.40;31.40;;;;;;;7.17;100.00;98318.65;107909;1282;22551;-90
2022/09/23 06:44:13;;;;;;;45.80;35.00;;;;;;;7.16;100.00;98318.21;106343;1280;25240;-91
2022/09/23 06:46:41;;;;;;;38.40;33.00;;;;;;;7.17;100.00;98322.34;106003;1282;22706;-91
2022/09/23 06:49:10;;;;;;;37.20;31.70;;;;;;;7.19;100.00;98323.90;105850;1282;22556;-90
2022/09/23 06:51:39;;;;;;;33.60;30.00;;;;;;;7.22;100.00;98321.59;105845;1282;22575;-91
2022/09/23 06:54:08;;;;;;;30.70;27.80;;;;;;;7.20;100.00;98320.21;105681;1282;25454;-90
2022/09/23 06:56:37;;;;;;;33.40;28.00;;;;;;;7.25;100.00;98322.77;105646;1282;25237;-89
2022/09/23 06:59:11;;;;;;;34.20;30.00;;;;;;;7.28;100.00;98324.23;105961;1282;25607;-89
2022/09/23 07:01:40;;;;;;;37.10;33.30;;;;;;;7.35;100.00;98324.13;105889;1282;25187;-91
2022/09/23 07:04:09;;;;;;;41.50;36.90;;;;;;;7.41;100.00;98326.71;105830;1282;24292;-90
2022/09/23 07:06:37;;;;;;;42.30;38.00;;;;;;;7.51;100.00;98329.02;105785;1282;23335;-91
2022/09/23 07:09:07;;;;;;;44.80;39.80;;;;;;;7.65;100.00;98329.30;105985;1282;22535;-89
2022/09/23 07:11:35;;;;;;;44.50;39.30;;;;;;;7.80;100.00;98331.27;106041;1282;22542;-90
2022/09/23 07:14:04;;;;;;;52.60;47.30;;;;;;;7.97;100.00;98330.23;106092;1282;25216;-86
2022/09/23 07:16:32;;;;;;;54.80;49.40;;;;;;;8.09;100.00;98328.77;106464;1282;22559;-91
2022/09/23 07:19:00;;;;;;;44.60;40.20;;;;;;;8.16;100.00;98328.16;106320;1282;22699;-91
2022/09/23 07:21:28;;;;;;;37.50;33.70;;;;;;;8.11;100.00;98327.78;106664;1282;22568;-86
2022/09/23 07:23:56;;;;;;;42.00;37.50;;;;;;;8.12;100.00;98330.73;106361;1282;22635;-90
2022/09/23 07:26:25;;;;;;;42.50;38.00;;;;;;;8.18;100.00;98334.53;106857;1282;22637;-93
2022/09/23 07:28:55;;;;;;;46.80;40.80;;;;;;;8.27;100.00;98341.86;107103;1282;26016;-92
2022/09/23 07:31:23;;;;;;;49.40;44.90;;;;;;;8.37;100.00;98340.67;107220;1282;22715;-90
2022/09/23 07:34:06;;;;;;;49.60;44.70;;;;;;;8.47;100.00;98346.07;106659;1282;22539;-91
2022/09/23 07:36:36;;;;;;;48.20;43.50;;;;;;;8.56;100.00;98341.70;106574;1282;22483;-93
2022/09/23 07:39:04;;;;;;;40.40;36.40;;;;;;;8.67;100.00;98340.75;106516;1282;24257;-92
2022/09/23 07:41:33;;;;;;;33.80;30.50;;;;;;;8.75;100.00;98340.98;106459;1282;22487;-92
2022/09/23 07:44:01;;;;;;;34.00;30.60;;;;;;;8.79;100.00;98338.96;106368;1282;23017;-91
2022/09/23 07:46:32;;;;;;;36.70;33.10;;;;;;;8.86;100.00;98338.34;106209;1282;25240;-93
2022/09/23 07:49:04;;;;;;;36.90;33.00;;;;;;;8.86;100.00;98341.68;105946;1282;22541;-92
2022/09/23 07:51:38;;;;;;;40.20;36.20;;;;;;;8.83;100.00;98335.79;105950;1282;23886;-93
2022/09/23 07:54:12;;;;;;;38.80;35.10;;;;;;;8.84;100.00;98337.27;106330;1282;22654;-84
2022/09/23 07:56:46;;;;;;;37.60;34.00;;;;;;;8.88;100.00;98340.42;108858;1282;22589;-87
2022/09/23 07:59:17;;;;;;;37.50;33.80;;;;;;;8.96;100.00;98337.81;108724;1282;22699;-90
2022/09/23 08:01:47;;;;;;;41.80;37.90;;;;;;;9.05;100.00;98339.05;107680;1282;24071;-93
2022/09/23 08:04:23;;;;;;;35.70;32.30;;;;;;;9.08;100.00;98340.27;107087;1282;22563;-94
2022/09/23 08:06:54;;;;;;;43.00;39.00;;;;;;;9.06;100.00;98340.88;106598;1282;22984;-91
2022/09/23 08:09:25;;;;;;;41.40;37.40;;;;;;;9.16;100.00;98342.81;106818;1282;25200;-93
2022/09/23 08:11:55;;;;;;;41.00;37.00;;;;;;;9.26;100.00;98341.45;106854;1282;22668;-91
2022/09/23 08:14:23;;;;;;;33.00;29.80;;;;;;;9.31;100.00;98343.24;107123;1282;24272;-93
2022/09/23 08:16:52;;;;;;;33.20;30.20;;;;;;;9.38;100.00;98341.10;106904;1282;22693;-90
2022/09/23 08:19:20;;;;;;;32.00;29.20;;;;;;;9.41;100.00;98343.13;106924;1283;24380;-91
2022/09/23 08:21:51;;;;;;;30.90;28.20;;;;;;;9.38;100.00;98348.52;106710;1282;22703;-92
2022/09/23 08:24:23;;;;;;;34.20;31.20;;;;;;;9.31;100.00;98343.89;106516;1282;22560;-93
2022/09/23 08:26:53;;;;;;;31.90;29.00;;;;;;;9.38;100.00;98343.20;106118;1282;22830;-90
2022/09/23 08:29:23;;;;;;;29.00;26.20;;;;;;;9.59;100.00;98339.72;106673;1282;22542;-91
2022/09/23 08:31:52;;;;;;;29.80;26.80;;;;;;;9.79;100.00;98335.56;106616;1282;22541;-92
2022/09/23 08:34:22;;;;;;;28.50;25.60;;;;;;;9.95;100.00;98334.83;106449;1282;23974;-93
2022/09/23 08:36:51;;;;;;;26.80;24.40;;;;;;;10.13;100.00;98328.08;106013;1282;25240;-92
2022/09/23 08:39:19;;;;;;;23.90;21.50;;;;;;;10.25;99.92;98329.52;105808;1282;22581;-91
2022/09/23 08:42:12;;;;;;;23.50;21.20;;;;;;;10.33;100.00;98321.92;106109;1282;22572;-92
2022/09/23 08:44:52;;;;;;;24.30;21.90;;;;;;;10.62;100.00;98323.11;106204;1282;22643;-92
2022/09/23 08:47:31;;;;;;;26.30;23.70;;;;;;;10.86;100.00;98319.23;106449;1282;24331;-90
2022/09/23 08:50:10;;;;;;;25.50;23.00;;;;;;;10.97;99.46;98319.57;106553;1282;22594;-92
2022/09/23 08:52:57;;;;;;;27.20;24.30;;;;;;;10.91;98.09;98321.54;106652;1282;22679;-93
2022/09/23 08:55:41;;;;;;;25.80;23.10;;;;;;;10.78;96.76;98315.95;106125;1282;22566;-89
2022/09/23 08:58:20;;;;;;;22.50;20.40;;;;;;;10.77;97.28;98310.73;105640;1282;25305;-90
2022/09/23 09:01:09;;;;;;;20.20;18.20;;;;;;;10.90;96.64;98314.64;105644;1282;24400;-90
2022/09/23 09:03:57;;;;;;;;;;;;;;;11.07;95.60;98315.06;105883;1282;23271;-92
2022/09/23 09:06:45;;;;;;;16.90;15.30;;;;;;;11.17;95.19;98316.11;106133;1282;22554;-91
2022/09/23 09:09:32;;;;;;;;;;;;;;;11.21;93.14;98318.05;105696;1282;22518;-90
2022/09/23 09:12:22;;;;;;;16.60;15.00;;;;;;;11.08;92.61;98320.00;105756;1282;25366;-90
2022/09/23 09:15:01;;;;;;;20.90;18.90;;;;;;;10.99;92.85;98318.69;107531;1282;22608;-86
2022/09/23 09:17:37;;;;;;;23.70;21.50;;;;;;;11.14;93.07;98320.90;107413;1282;24392;-87
2022/09/23 09:20:16;;;;;;;22.20;18.90;;;;;;;11.28;92.82;98318.80;105718;1283;22637;-91
2022/09/23 09:22:59;;;;;;;17.60;15.90;;;;;;;11.39;92.29;98315.83;105643;1281;25253;-91
2022/09/23 09:25:48;;;;;;;16.10;14.60;;;;;;;11.41;92.46;98317.05;105829;1282;24295;-92
2022/09/23 09:28:25;;;;;;;15.20;13.80;;;;;;;11.41;93.27;98312.41;105834;1282;25360;-89
2022/09/23 09:30:58;;;;;;;12.00;10.90;;;;;;;11.61;92.58;98311.81;105966;1282;23991;-91
2022/09/23 09:34:01;;;;;;;13.40;12.10;;;;;;;11.81;91.15;98307.70;105887;1282;22569;-89
2022/09/23 09:36:44;;;;;;;15.10;13.60;;;;;;;11.95;89.12;98308.55;105075;1290;22505;-88
2022/09/23 09:39:14;;;;;;;13.70;12.30;;;;;;;11.84;87.19;98307.98;104868;1290;22591;-91
2022/09/23 09:41:49;;;;;;;13.90;12.40;;;;;;;11.67;87.37;98306.70;104648;1294;22594;-91
2022/09/23 09:44:25;;;;;;;12.70;11.40;;;;;;;11.67;86.10;98303.52;106970;1290;22558;-89
2022/09/23 09:47:35;;;;;;;12.00;10.80;;;;;;;11.87;87.26;98306.10;106487;1290;22742;-91
2022/09/23 09:50:09;;;;;;;12.00;10.50;;;;;;;12.16;87.11;98298.56;105698;1290;23019;-92
2022/09/23 09:52:37;;;;;;;12.30;11.00;;;;;;;12.32;83.89;98298.05;105139;1290;22579;-92
2022/09/23 09:55:12;;;;;;;13.60;12.20;;;;;;;12.39;83.93;98296.45;105272;1290;214818;-91
2022/09/23 09:58:04;;;;;;;14.90;13.50;;;;;;;12.46;85.71;98294.90;105407;1290;22646;-90
2022/09/23 10:00:41;;;;;;;15.50;12.20;;;;;;;12.59;84.87;98296.10;104905;1291;22684;-88
2022/09/23 10:03:36;;;;;;;13.70;10.70;;;;;;;12.60;84.70;98288.95;104736;1291;25737;-91
2022/09/23 10:06:16;;;;;;;;;;;;;;;12.46;84.76;98280.95;104170;1297;22668;-90
2022/09/23 10:09:12;;;;;;;12.80;11.60;;;;;;;12.29;82.22;98282.85;104320;1297;22566;-91
2022/09/23 10:11:41;;;;;;;12.30;11.00;;;;;;;12.04;83.64;98276.20;104379;1297;24253;-89
2022/09/23 10:14:17;;;;;;;15.10;13.00;;;;;;;12.10;83.16;98273.56;104819;1291;22682;-90
2022/09/23 10:17:04;;;;;;;15.40;13.80;;;;;;;12.25;83.86;98271.59;104900;1290;25189;-89
2022/09/23 10:19:36;;;;;;;14.70;12.20;;;;;;;12.53;84.15;98269.31;105035;1290;24308;-89
2022/09/23 10:22:15;;;;;;;15.20;13.80;;;;;;;12.78;80.62;98264.88;105162;1290;24400;-91
2022/09/23 10:24:48;;;;;;;7.90;7.00;;;;;;;12.92;79.82;98266.30;105056;1290;24324;-92
2022/09/23 10:27:26;;;;;;;9.90;8.00;;;;;;;13.05;79.29;98266.23;104980;1290;22556;-89
2022/09/23 10:30:00;;;;;;;12.70;10.00;;;;;;;13.18;74.46;98268.52;104889;1291;24282;-89
2022/09/23 10:32:38;;;;;;;12.20;10.10;;;;;;;13.12;74.76;98264.39;105634;1290;22655;-88
2022/09/23 10:35:13;;;;;;;11.60;9.60;;;;;;;13.11;74.85;98267.92;106785;1290;25776;-89
2022/09/23 10:37:48;;;;;;;12.40;10.40;;;;;;;13.17;75.28;98256.40;104985;1290;25444;-87
2022/09/23 10:49:12;;;;;;;14.40;9.70;;;;;;;13.47;74.51;98249.36;105522;1283;25483;-87
2022/09/23 10:51:54;;;;;;;13.10;9.30;;;;;;;13.68;73.15;98252.45;105794;1283;22553;-92
2022/09/23 10:54:31;;;;;;;14.60;8.50;;;;;;;13.79;72.56;98252.06;105964;1284;23076;-88
2022/09/23 11:00:21;;;;;;;7.70;6.00;;;;;;;14.01;67.63;98248.88;105636;1283;22610;-91
2022/09/23 11:03:18;;;;;;;9.30;5.90;;;;;;;13.96;64.88;98242.45;105668;1284;22642;-92
2022/09/23 11:06:18;;;;;;;8.00;6.40;;;;;;;13.89;63.13;98237.61;105693;1284;22543;-89
2022/09/23 11:09:27;;;;;;;7.30;5.90;;;;;;;13.96;65.91;98232.58;105041;1288;22575;-90
2022/09/23 11:12:20;;;;;;;8.50;5.00;;;;;;;13.93;64.85;98231.25;105022;1290;22576;-92
2022/09/23 11:15:31;;;;;;;6.70;4.70;;;;;;;13.75;63.48;98234.77;105090;1290;22590;-89
2022/09/23 11:18:34;;;;;;;6.80;5.40;;;;;;;13.51;65.12;98232.30;105157;1290;22664;-93
2022/09/23 11:21:14;;;;;;;6.10;3.80;;;;;;;13.64;65.34;98229.33;105357;1290;23973;-92
2022/09/23 11:24:03;;;;;;;4.10;2.80;;;;;;;13.77;63.79;98224.64;105771;1288;22559;-91
2022/09/23 11:26:41;;;;;;;3.40;2.50;;;;;;;13.52;58.46;98222.89;105460;1290;24427;-91
2022/09/23 11:29:31;;;;;;;3.70;2.50;;;;;;;13.34;59.51;98218.27;105648;1290;22766;-85
2022/09/23 11:32:27;;;;;;;3.60;2.70;;;;;;;13.51;58.64;98217.73;108264;1288;22651;-89
2022/09/23 11:35:23;;;;;;;4.30;3.50;;;;;;;13.81;60.24;98215.20;106219;1289;22681;-91
2022/09/23 11:38:00;;;;;;;6.30;5.10;;;;;;;14.15;60.80;98207.75;105002;1290;24818;-88
2022/09/23 11:40:37;;;;;;;6.30;5.40;;;;;;;14.45;60.68;98207.38;105122;1289;22688;-90
2022/09/23 11:43:17;;;;;;;6.80;5.80;;;;;;;14.73;62.71;98196.36;105046;1289;22499;-89
2022/09/23 11:46:01;;;;;;;5.40;3.70;;;;;;;15.02;61.23;98206.30;105755;1282;25367;-90
2022/09/23 11:48:42;;;;;;;5.30;4.30;;;;;;;15.09;58.91;98206.61;105824;1284;22546;-88
2022/09/23 11:51:20;;;;;;;5.10;2.80;;;;;;;14.96;57.17;98205.34;107274;1283;25342;-87
2022/09/23 11:54:33;;;;;;;2.90;2.50;;;;;;;14.56;54.04;98209.38;107671;1282;25455;-89
2022/09/23 11:57:06;;;;;;;3.60;2.90;;;;;;;14.01;55.22;98210.05;106608;1282;24251;-90
2022/09/23 11:59:46;;;;;;;3.60;2.70;;;;;;;13.75;57.19;98205.99;106452;1282;24278;-92
2022/09/23 12:02:26;;;;;;;4.30;2.80;;;;;;;13.84;57.66;98202.40;106975;1282;22994;-89
2022/09/23 12:05:07;;;;;;;6.20;3.70;;;;;;;14.17;59.11;98191.73;107005;1283;22561;-90
2022/09/23 12:07:56;;;;;;;4.90;3.00;;;;;;;14.53;58.91;98184.31;106266;1283;22785;-91
2022/09/23 12:10:56;;;;;;;5.90;3.60;;;;;;;14.54;55.81;98185.85;105721;1282;24281;-92